createdAt,value
2022-08-25T00:01:30.413Z,65.42
2022-08-25T00:04:00.032Z,65.41
2022-08-25T00:06:30.230Z,65.81
2022-08-25T00:08:59.830Z,65.94
2022-08-25T00:11:28.072Z,65.68
2022-08-25T00:13:58.377Z,65.89
2022-08-25T00:16:26.518Z,65.66
2022-08-25T00:18:56.758Z,65.77
2022-08-25T00:21:24.304Z,65.51
2022-08-25T00:23:52.103Z,65.75
2022-08-25T00:26:19.718Z,66.04
2022-08-25T00:28:47.337Z,65.68
2022-08-25T00:31:15.265Z,65.84
2022-08-25T00:33:43.088Z,65.90
2022-08-25T00:36:12.545Z,65.75
2022-08-25T00:38:40.531Z,65.91
2022-08-25T00:41:08.337Z,65.89
2022-08-25T00:43:38.077Z,65.77
2022-08-25T00:46:05.992Z,65.84
2022-08-25T00:48:33.668Z,66.05
2022-08-25T00:51:01.255Z,65.73
2022-08-25T00:53:30.190Z,65.71
2022-08-25T00:55:58.948Z,65.75
2022-08-25T00:58:27.511Z,65.86
2022-08-25T01:00:55.808Z,66.35
2022-08-25T01:03:23.933Z,66.20
2022-08-25T01:06:00.769Z,66.06
2022-08-25T01:08:29.284Z,66.10
2022-08-25T01:11:01.780Z,66.00
2022-08-25T01:13:31.834Z,65.87
2022-08-25T01:15:59.435Z,65.52
2022-08-25T01:18:27.286Z,65.70
2022-08-25T01:20:56.324Z,65.90
2022-08-25T01:23:24.604Z,65.59
2022-08-25T01:25:53.009Z,65.91
2022-08-25T01:28:20.687Z,65.95
2022-08-25T01:30:48.867Z,66.09
2022-08-25T01:33:17.161Z,65.85
2022-08-25T01:35:44.787Z,65.71
2022-08-25T01:38:13.820Z,65.58
2022-08-25T01:40:42.881Z,65.89
2022-08-25T01:43:13.159Z,65.72
2022-08-25T01:45:41.550Z,66.06
2022-08-25T01:48:09.491Z,65.74
2022-08-25T01:50:37.309Z,65.70
2022-08-25T01:53:05.404Z,66.13
2022-08-25T01:55:51.601Z,66.18
2022-08-25T01:58:19.465Z,65.91
2022-08-25T02:00:47.502Z,65.75
2022-08-25T02:03:18.513Z,65.89
2022-08-25T02:05:48.060Z,66.21
2022-08-25T02:08:17.707Z,66.19
2022-08-25T02:10:47.072Z,66.17
2022-08-25T02:13:14.727Z,66.02
2022-08-25T02:15:42.618Z,65.78
2022-08-25T02:18:10.681Z,65.72
2022-08-25T02:20:38.260Z,65.99
2022-08-25T02:23:05.826Z,66.05
2022-08-25T02:25:33.680Z,66.02
2022-08-25T02:28:02.691Z,66.28
2022-08-25T02:30:30.470Z,66.04
2022-08-25T02:32:58.492Z,66.01
2022-08-25T02:35:26.187Z,66.16
2022-08-25T02:37:54.588Z,66.31
2022-08-25T02:40:22.318Z,66.26
2022-08-25T02:42:50.108Z,66.17
2022-08-25T02:45:19.529Z,66.26
2022-08-25T02:47:47.210Z,66.02
2022-08-25T02:50:14.847Z,66.12
2022-08-25T02:52:42.469Z,66.32
2022-08-25T02:55:14.032Z,66.00
2022-08-25T02:57:42.091Z,66.18
2022-08-25T03:00:10.809Z,66.09
2022-08-25T03:02:42.473Z,66.02
2022-08-25T03:05:10.614Z,66.07
2022-08-25T03:07:38.510Z,66.02
2022-08-25T03:10:07.962Z,66.03
2022-08-25T03:12:35.573Z,65.93
2022-08-25T03:15:03.159Z,66.26
2022-08-25T03:17:32.974Z,65.96
2022-08-25T03:20:05.203Z,66.06
2022-08-25T03:22:33.304Z,66.30
2022-08-25T03:25:24.208Z,66.00
2022-08-25T03:27:51.873Z,66.19
2022-08-25T03:30:19.616Z,66.13
2022-08-25T03:32:47.403Z,66.18
2022-08-25T03:35:16.934Z,66.15
2022-08-25T03:37:44.672Z,66.08
2022-08-25T03:40:15.388Z,65.85
2022-08-25T03:42:45.098Z,66.12
2022-08-25T03:45:13.619Z,66.07
2022-08-25T03:47:42.200Z,66.21
2022-08-25T03:50:10.909Z,66.19
2022-08-25T03:52:42.590Z,66.20
2022-08-25T03:55:11.376Z,66.23
2022-08-25T03:57:39.178Z,66.09
2022-08-25T04:00:07.639Z,66.32
2022-08-25T04:02:39.790Z,66.52
2022-08-25T04:05:07.612Z,66.49
2022-08-25T04:07:35.392Z,66.39
2022-08-25T04:10:04.507Z,66.38
2022-08-25T04:12:32.091Z,66.29
2022-08-25T04:14:59.741Z,66.15
2022-08-25T04:17:27.478Z,66.19
2022-08-25T04:19:55.481Z,66.30
2022-08-25T04:22:23.111Z,66.43
2022-08-25T04:24:50.658Z,66.49
2022-08-25T04:27:19.854Z,66.07
2022-08-25T04:29:47.456Z,66.39
2022-08-25T04:32:14.994Z,66.33
2022-08-25T04:34:43.460Z,66.44
2022-08-25T04:37:11.146Z,66.37
2022-08-25T04:39:38.736Z,66.50
2022-08-25T04:42:06.560Z,66.47
2022-08-25T04:44:35.468Z,66.52
2022-08-25T04:47:03.396Z,66.47
2022-08-25T04:49:31.983Z,66.55
2022-08-25T04:52:00.127Z,66.41
2022-08-25T04:54:28.297Z,66.46
2022-08-25T04:56:58.467Z,66.58
2022-08-25T04:59:30.376Z,66.63
2022-08-25T05:02:02.374Z,66.32
2022-08-25T05:04:30.439Z,66.55
2022-08-25T05:06:58.305Z,65.75
2022-08-25T05:09:26.068Z,65.36
2022-08-25T05:11:53.781Z,64.99
2022-08-25T05:14:25.700Z,64.90
2022-08-25T05:16:54.452Z,64.63
2022-08-25T05:19:23.997Z,64.77
2022-08-25T05:21:51.824Z,64.63
2022-08-25T05:24:19.409Z,64.66
2022-08-25T05:26:46.969Z,64.36
2022-08-25T05:29:15.604Z,64.64
2022-08-25T05:31:48.325Z,64.63
2022-08-25T05:34:18.754Z,64.67
2022-08-25T05:36:47.822Z,64.29
2022-08-25T05:39:15.590Z,64.48
2022-08-25T05:41:43.147Z,64.42
2022-08-25T05:44:12.555Z,64.22
2022-08-25T05:46:40.201Z,64.39
2022-08-25T05:49:07.834Z,64.27
2022-08-25T05:51:35.519Z,64.40
2022-08-25T05:54:04.866Z,64.18
2022-08-25T05:56:32.659Z,64.18
2022-08-25T05:59:00.418Z,64.77
2022-08-25T06:01:46.356Z,66.03
2022-08-25T06:04:14.096Z,67.12
2022-08-25T06:06:41.925Z,67.79
2022-08-25T06:09:10.968Z,68.05
2022-08-25T06:11:40.076Z,67.69
2022-08-25T06:14:08.197Z,67.82
2022-08-25T06:16:35.875Z,68.24
2022-08-25T06:19:03.544Z,68.45
2022-08-25T06:21:31.242Z,68.21
2022-08-25T06:23:58.935Z,68.93
2022-08-25T06:26:27.854Z,69.00
2022-08-25T06:28:55.496Z,68.76
2022-08-25T06:31:23.134Z,69.32
2022-08-25T06:33:50.939Z,69.34
2022-08-25T06:36:19.184Z,69.73
2022-08-25T06:38:46.964Z,69.87
2022-08-25T06:41:16.362Z,69.37
2022-08-25T06:43:49.829Z,69.53
2022-08-25T06:46:21.271Z,69.31
2022-08-25T06:48:49.129Z,69.40
2022-08-25T06:51:17.337Z,69.04
2022-08-25T06:53:45.026Z,68.42
2022-08-25T06:56:12.821Z,67.87
2022-08-25T06:58:40.451Z,67.25
2022-08-25T07:01:14.920Z,67.18
2022-08-25T07:03:43.785Z,66.48
2022-08-25T07:06:11.398Z,66.49
2022-08-25T07:08:39.076Z,66.39
2022-08-25T07:11:07.125Z,66.34
2022-08-25T07:13:44.574Z,66.32
2022-08-25T07:16:15.411Z,66.17
2022-08-25T07:18:44.176Z,66.09
2022-08-25T07:21:12.203Z,65.62
2022-08-25T07:23:39.972Z,65.64
2022-08-25T07:26:26.985Z,65.51
2022-08-25T07:28:58.436Z,65.58
2022-08-25T07:31:29.438Z,65.44
2022-08-25T07:34:15.135Z,65.57
2022-08-25T07:36:44.097Z,65.71
2022-08-25T07:39:11.770Z,65.50
2022-08-25T07:41:42.763Z,65.58
2022-08-25T07:44:11.113Z,65.47
2022-08-25T07:46:40.474Z,65.22
2022-08-25T07:52:05.591Z,65.40
2022-08-25T07:54:35.082Z,65.41
2022-08-25T07:57:03.202Z,65.11
2022-08-25T07:59:30.988Z,65.06
2022-08-25T08:02:09.168Z,65.35
2022-08-25T08:04:48.373Z,65.09
2022-08-25T08:07:16.988Z,65.17
2022-08-25T08:09:45.063Z,64.92
2022-08-25T08:12:13.661Z,64.95
2022-08-25T08:14:44.984Z,64.92
2022-08-25T08:17:15.202Z,64.76
2022-08-25T08:19:45.363Z,65.00
2022-08-25T08:22:15.141Z,65.08
2022-08-25T08:24:54.875Z,65.09
2022-08-25T08:27:23.880Z,64.88
2022-08-25T08:29:52.263Z,65.00
2022-08-25T08:32:21.362Z,64.87
2022-08-25T08:34:52.939Z,64.99
2022-08-25T08:37:22.991Z,64.89
2022-08-25T08:39:52.659Z,64.57
2022-08-25T08:42:26.288Z,64.73
2022-08-25T08:45:02.622Z,64.87
2022-08-25T08:47:33.854Z,64.56
2022-08-25T08:50:05.883Z,64.67
2022-08-25T08:52:37.428Z,64.75
2022-08-25T08:55:06.898Z,64.61
2022-08-25T08:57:35.758Z,64.54
2022-08-25T09:00:03.777Z,64.40
2022-08-25T09:02:39.319Z,64.66
2022-08-25T09:05:20.963Z,64.53
2022-08-25T09:07:49.545Z,64.55
2022-08-25T09:10:22.742Z,64.30
2022-08-25T09:12:51.299Z,64.46
2022-08-25T09:15:19.980Z,64.53
2022-08-25T09:17:56.460Z,64.21
2022-08-25T09:20:42.521Z,64.21
2022-08-25T09:23:13.413Z,64.33
2022-08-25T09:25:52.389Z,64.48
2022-08-25T09:28:24.154Z,64.35
2022-08-25T09:30:52.810Z,64.41
2022-08-25T09:33:25.454Z,64.16
2022-08-25T09:35:53.678Z,64.18
2022-08-25T09:38:21.733Z,64.50
2022-08-25T09:40:49.833Z,64.24
2022-08-25T09:43:21.568Z,64.29
2022-08-25T09:45:49.920Z,64.04
2022-08-25T09:48:25.996Z,64.14
2022-08-25T09:50:54.139Z,64.07
2022-08-25T09:53:21.931Z,63.82
2022-08-25T09:56:00.052Z,63.62
2022-08-25T09:58:28.333Z,63.54
2022-08-25T10:01:04.221Z,63.59
2022-08-25T10:03:36.754Z,63.50
2022-08-25T10:06:06.559Z,63.17
2022-08-25T10:08:35.928Z,63.49
2022-08-25T10:11:05.092Z,63.02
2022-08-25T10:13:37.792Z,63.36
2022-08-25T10:16:20.442Z,63.13
2022-08-25T10:19:02.999Z,63.06
2022-08-25T10:21:30.927Z,63.03
2022-08-25T10:23:58.945Z,63.23
2022-08-25T10:26:33.022Z,63.07
2022-08-25T10:29:07.823Z,63.22
2022-08-25T10:31:38.098Z,63.04
2022-08-25T10:34:27.418Z,62.94
2022-08-25T10:36:57.937Z,63.13
2022-08-25T10:39:36.496Z,63.00
2022-08-25T10:42:05.322Z,62.88
2022-08-25T10:44:52.030Z,62.99
2022-08-25T10:47:33.325Z,62.58
2022-08-25T10:50:02.926Z,63.22
2022-08-25T10:52:37.741Z,62.98
2022-08-25T10:55:07.753Z,62.88
2022-08-25T10:57:36.975Z,62.73
2022-08-25T11:00:07.170Z,62.96
2022-08-25T11:02:39.198Z,63.00
2022-08-25T11:05:09.515Z,62.90
2022-08-25T11:07:39.037Z,62.95
2022-08-25T11:10:09.798Z,62.79
2022-08-25T11:12:39.779Z,62.78
2022-08-25T11:15:08.604Z,62.76
2022-08-25T11:17:39.444Z,62.58
2022-08-25T11:20:15.250Z,62.85
2022-08-25T11:22:51.541Z,62.78
2022-08-25T11:25:20.140Z,62.70
2022-08-25T11:27:50.333Z,62.56
2022-08-25T11:30:18.802Z,62.79
2022-08-25T11:32:48.065Z,62.51
2022-08-25T11:35:16.484Z,62.55
2022-08-25T11:37:46.064Z,62.58
2022-08-25T11:40:20.072Z,62.53
2022-08-25T11:42:53.866Z,62.51
2022-08-25T11:45:25.074Z,62.41
2022-08-25T11:47:57.761Z,62.59
2022-08-25T11:50:30.302Z,62.72
2022-08-25T11:52:58.610Z,62.50
2022-08-25T11:55:33.401Z,62.58
2022-08-25T11:58:16.868Z,62.45
2022-08-25T12:00:44.659Z,62.49
2022-08-25T12:03:27.157Z,62.43
2022-08-25T12:06:14.536Z,62.38
2022-08-25T12:08:51.537Z,62.40
2022-08-25T12:11:37.761Z,62.43
2022-08-25T12:14:16.038Z,62.37
2022-08-25T12:16:44.360Z,62.40
2022-08-25T12:19:29.697Z,62.41
2022-08-25T12:21:59.396Z,62.33
2022-08-25T12:24:47.640Z,62.47
2022-08-25T12:27:21.847Z,62.27
2022-08-25T12:29:50.879Z,62.16
2022-08-25T12:32:20.890Z,62.29
2022-08-25T12:35:00.329Z,62.22
2022-08-25T12:37:28.031Z,62.10
2022-08-25T12:39:58.836Z,62.19
2022-08-25T12:42:29.757Z,62.17
2022-08-25T12:45:14.225Z,61.89
2022-08-25T12:47:44.777Z,62.20
2022-08-25T12:50:37.123Z,62.22
2022-08-25T12:53:08.816Z,62.21
2022-08-25T12:55:37.329Z,62.11
2022-08-25T12:58:06.549Z,62.00
2022-08-25T13:00:38.889Z,62.05
2022-08-25T13:03:21.711Z,61.99
2022-08-25T13:06:06.061Z,61.98
2022-08-25T13:08:54.272Z,62.04
2022-08-25T13:11:24.784Z,62.01
2022-08-25T13:13:52.985Z,62.11
2022-08-25T13:16:28.415Z,61.89
2022-08-25T13:18:59.164Z,61.86
2022-08-25T13:21:29.314Z,62.09
2022-08-25T13:24:01.600Z,62.07
2022-08-25T13:26:33.043Z,61.92
2022-08-25T13:29:01.540Z,61.78
2022-08-25T13:31:30.867Z,61.80
2022-08-25T13:33:59.012Z,61.96
2022-08-25T13:36:47.481Z,61.77
2022-08-25T13:39:39.038Z,61.74
2022-08-25T13:42:12.945Z,61.80
2022-08-25T13:44:40.937Z,61.63
2022-08-25T13:47:33.425Z,62.04
2022-08-25T13:50:15.318Z,61.66
2022-08-25T13:52:44.921Z,61.80
2022-08-25T13:55:12.876Z,61.57
2022-08-25T13:57:42.728Z,61.60
2022-08-25T14:00:11.515Z,61.61
2022-08-25T14:02:45.451Z,61.92
2022-08-25T14:05:18.300Z,61.78
2022-08-25T14:08:09.104Z,61.85
2022-08-25T14:10:42.239Z,61.75
2022-08-25T14:13:12.468Z,61.82
2022-08-25T14:15:40.162Z,61.80
2022-08-25T14:18:10.209Z,61.67
2022-08-25T14:20:44.701Z,61.88
2022-08-25T14:23:16.247Z,61.78
2022-08-25T14:25:46.929Z,61.36
2022-08-25T14:28:15.438Z,61.56
2022-08-25T14:30:46.127Z,61.79
2022-08-25T14:33:16.027Z,61.71
2022-08-25T14:35:44.001Z,61.57
2022-08-25T14:38:12.323Z,61.63
2022-08-25T14:40:40.027Z,61.74
2022-08-25T14:43:09.680Z,61.79
2022-08-25T14:45:38.480Z,61.82
2022-08-25T14:48:10.718Z,61.61
2022-08-25T14:50:41.175Z,61.58
2022-08-25T14:53:10.359Z,61.75
2022-08-25T14:55:38.801Z,61.85
2022-08-25T14:58:07.476Z,61.52
2022-08-25T15:00:36.433Z,61.71
2022-08-25T15:03:04.189Z,61.60
2022-08-25T15:05:32.347Z,61.49
2022-08-25T15:08:18.667Z,61.40
2022-08-25T15:10:46.824Z,61.46
2022-08-25T15:13:15.115Z,61.56
2022-08-25T15:15:52.349Z,61.50
2022-08-25T15:18:21.043Z,61.54
2022-08-25T15:20:50.061Z,61.31
2022-08-25T15:23:19.562Z,61.48
2022-08-25T15:25:47.594Z,61.62
2022-08-25T15:28:17.422Z,61.60
2022-08-25T15:30:45.882Z,61.64
2022-08-25T15:33:14.056Z,61.47
2022-08-25T15:35:42.113Z,61.74
2022-08-25T15:38:13.897Z,61.47
2022-08-25T15:40:43.193Z,61.78
2022-08-25T15:43:10.798Z,61.71
2022-08-25T15:45:38.627Z,61.83
2022-08-25T15:48:09.480Z,61.70
2022-08-25T15:50:38.619Z,61.89
2022-08-25T15:53:08.319Z,61.83
2022-08-25T15:55:38.879Z,61.92
2022-08-25T15:58:09.097Z,61.81
2022-08-25T16:00:37.701Z,61.92
2022-08-25T16:03:07.917Z,61.87
2022-08-25T16:05:37.320Z,61.78
2022-08-25T16:08:05.311Z,61.88
2022-08-25T16:10:34.378Z,61.80
2022-08-25T16:13:04.697Z,61.92
2022-08-25T16:15:35.624Z,61.86
2022-08-25T16:18:04.807Z,61.83
2022-08-25T16:20:33.049Z,61.76
2022-08-25T16:23:02.873Z,61.88
2022-08-25T16:25:32.031Z,61.71
2022-08-25T16:27:59.610Z,61.75
2022-08-25T16:30:27.207Z,61.79
2022-08-25T16:32:56.935Z,61.77
2022-08-25T16:35:24.814Z,61.82
2022-08-25T16:37:52.402Z,61.92
2022-08-25T16:40:24.467Z,61.91
2022-08-25T16:42:54.868Z,61.89
2022-08-25T16:45:22.425Z,62.16
2022-08-25T16:47:49.953Z,62.28
2022-08-25T16:50:18.818Z,62.26
2022-08-25T16:53:07.914Z,62.07
2022-08-25T16:55:39.056Z,62.14
2022-08-25T16:58:07.776Z,62.08
2022-08-25T17:00:37.789Z,62.08
2022-08-25T17:03:05.788Z,62.12
2022-08-25T17:05:35.026Z,62.01
2022-08-25T17:08:20.509Z,61.83
2022-08-25T17:10:48.125Z,62.12
2022-08-25T17:13:15.811Z,61.91
2022-08-25T17:15:43.784Z,61.98
2022-08-25T17:18:13.696Z,61.97
2022-08-25T17:20:43.323Z,62.19
2022-08-25T17:23:12.403Z,62.05
2022-08-25T17:25:42.846Z,62.20
2022-08-25T17:28:12.177Z,62.02
2022-08-25T17:30:40.179Z,62.15
2022-08-25T17:33:08.216Z,61.95
2022-08-25T17:35:38.974Z,62.12
2022-08-25T17:38:08.008Z,62.12
2022-08-25T17:40:36.430Z,62.04
2022-08-25T17:43:04.164Z,62.22
2022-08-25T17:45:36.986Z,62.17
2022-08-25T17:48:05.407Z,61.91
2022-08-25T17:50:36.233Z,62.00
2022-08-25T17:53:04.259Z,62.14
2022-08-25T17:55:33.709Z,62.15
2022-08-25T17:58:02.990Z,62.36
2022-08-25T18:00:30.760Z,62.15
2022-08-25T18:02:58.324Z,62.19
2022-08-25T18:05:27.824Z,62.04
2022-08-25T18:07:57.343Z,62.15
2022-08-25T18:10:28.205Z,62.08
2022-08-25T18:13:02.080Z,62.31
2022-08-25T18:15:30.147Z,62.21
2022-08-25T18:17:58.475Z,62.24
2022-08-25T18:20:26.358Z,62.23
2022-08-25T18:22:55.157Z,62.15
2022-08-25T18:25:26.879Z,62.38
2022-08-25T18:27:54.851Z,62.26
2022-08-25T18:30:26.331Z,62.36
2022-08-25T18:32:55.822Z,62.18
2022-08-25T18:35:26.632Z,62.36
2022-08-25T18:38:12.387Z,62.31
2022-08-25T18:40:40.513Z,62.39
2022-08-25T18:43:09.005Z,62.31
2022-08-25T18:45:40.894Z,62.23
2022-08-25T18:48:08.492Z,62.13
2022-08-25T18:50:36.701Z,62.32
2022-08-25T18:53:04.420Z,62.30
2022-08-25T18:55:34.290Z,62.42
2022-08-25T18:58:02.122Z,62.43
2022-08-25T19:00:30.560Z,62.44
2022-08-25T19:03:01.267Z,62.41
2022-08-25T19:05:32.609Z,62.36
2022-08-25T19:08:01.264Z,62.18
2022-08-25T19:10:30.849Z,62.36
2022-08-25T19:12:58.635Z,62.28
2022-08-25T19:15:35.480Z,62.57
2022-08-25T19:18:09.202Z,62.75
2022-08-25T19:20:38.762Z,62.73
2022-08-25T19:23:08.809Z,62.66
2022-08-25T19:25:36.883Z,62.65
2022-08-25T19:28:11.914Z,62.81
2022-08-25T19:30:43.656Z,62.89
2022-08-25T19:33:42.717Z,62.58
2022-08-25T19:36:08.423Z,62.86
2022-08-25T19:38:36.597Z,62.90
2022-08-25T19:41:10.575Z,62.87
2022-08-25T19:43:55.198Z,62.91
2022-08-25T19:46:25.156Z,63.02
2022-08-25T19:48:54.167Z,62.55
2022-08-25T19:51:22.111Z,63.09
2022-08-25T19:53:54.322Z,63.00
2022-08-25T19:56:24.041Z,62.94
2022-08-25T19:58:52.025Z,62.83
2022-08-25T20:01:20.050Z,62.96
2022-08-25T20:03:47.712Z,62.77
2022-08-25T20:06:16.784Z,63.01
2022-08-25T20:08:44.368Z,62.91
2022-08-25T20:11:12.335Z,62.64
2022-08-25T20:13:40.184Z,62.88
2022-08-25T20:16:08.027Z,62.88
2022-08-25T20:18:36.016Z,63.19
2022-08-25T20:21:04.116Z,62.95
2022-08-25T20:23:50.388Z,63.07
2022-08-25T20:26:17.951Z,62.81
2022-08-25T20:28:46.321Z,62.87
2022-08-25T20:31:14.087Z,62.72
2022-08-25T20:33:42.356Z,62.90
2022-08-25T20:36:11.273Z,62.82
2022-08-25T20:38:41.123Z,62.73
2022-08-25T20:41:10.088Z,62.72
2022-08-25T20:43:39.134Z,62.92
2022-08-25T20:46:07.722Z,62.85
2022-08-25T20:48:35.432Z,62.83
2022-08-25T20:51:04.884Z,62.97
2022-08-25T20:53:32.487Z,62.96
2022-08-25T20:56:01.692Z,62.95
2022-08-25T20:58:30.025Z,62.88
2022-08-25T21:00:57.740Z,62.69
2022-08-25T21:03:25.687Z,64.13
2022-08-25T21:05:54.153Z,64.27
2022-08-25T21:08:22.026Z,65.31
2022-08-25T21:10:51.376Z,65.36
2022-08-25T21:13:20.295Z,65.10
2022-08-25T21:15:50.446Z,65.08
2022-08-25T21:18:18.084Z,65.53
2022-08-25T21:20:46.222Z,65.55
2022-08-25T21:23:14.191Z,65.49
2022-08-25T21:25:42.132Z,65.71
2022-08-25T21:28:09.868Z,65.59
2022-08-25T21:30:44.681Z,65.67
2022-08-25T21:33:15.330Z,65.33
2022-08-25T21:35:43.289Z,65.62
2022-08-25T21:38:11.005Z,65.92
2022-08-25T21:40:39.680Z,65.70
2022-08-25T21:43:12.601Z,65.48
2022-08-25T21:45:45.755Z,65.29
2022-08-25T21:48:16.308Z,65.47
2022-08-25T21:50:44.155Z,65.23
2022-08-25T21:53:12.849Z,65.56
2022-08-25T21:55:42.256Z,65.75
2022-08-25T21:58:10.090Z,65.87
2022-08-25T22:00:38.694Z,65.63
2022-08-25T22:03:07.032Z,65.96
2022-08-25T22:05:39.329Z,65.75
2022-08-25T22:08:08.229Z,65.95
2022-08-25T22:10:36.004Z,66.21
2022-08-25T22:13:05.481Z,66.60
2022-08-25T22:15:33.168Z,67.48
2022-08-25T22:18:00.988Z,67.17
2022-08-25T22:20:28.898Z,66.82
2022-08-25T22:23:00.351Z,66.58
2022-08-25T22:25:28.719Z,66.97
2022-08-25T22:27:59.061Z,67.04
2022-08-25T22:30:29.623Z,67.00
2022-08-25T22:32:58.417Z,67.35
2022-08-25T22:35:26.097Z,67.46
2022-08-25T22:37:53.667Z,67.64
2022-08-25T22:40:22.688Z,67.80
2022-08-25T22:42:50.518Z,67.28
2022-08-25T22:45:18.203Z,68.15
2022-08-25T22:47:45.830Z,67.81
2022-08-25T22:50:13.458Z,67.47
2022-08-25T22:52:42.437Z,67.78
2022-08-25T22:55:12.058Z,67.87
2022-08-25T22:57:41.367Z,67.47
2022-08-25T23:00:09.769Z,67.65
2022-08-25T23:02:37.488Z,67.54
2022-08-25T23:05:05.451Z,68.10
2022-08-25T23:07:34.023Z,68.26
2022-08-25T23:10:03.560Z,68.12
2022-08-25T23:12:31.807Z,68.41
2022-08-25T23:15:01.927Z,68.37
2022-08-25T23:17:31.558Z,68.15
2022-08-25T23:19:59.365Z,68.61
2022-08-25T23:22:27.029Z,67.96
2022-08-25T23:24:55.213Z,68.78
2022-08-25T23:27:24.839Z,68.37
2022-08-25T23:29:52.422Z,68.60
2022-08-25T23:32:21.941Z,68.99
2022-08-25T23:34:49.588Z,68.79
2022-08-25T23:37:18.438Z,68.77
2022-08-25T23:39:47.345Z,68.36
2022-08-25T23:42:17.620Z,68.82
2022-08-25T23:44:45.911Z,68.93
2022-08-25T23:47:13.792Z,69.22
2022-08-25T23:49:42.903Z,69.31
2022-08-25T23:52:10.456Z,69.40
2022-08-25T23:54:38.227Z,69.14
2022-08-25T23:57:07.503Z,68.81
2022-08-25T23:59:38.300Z,69.50
